Time;durP1;ratioP1;P1;durP2;ratioP2;P2;SDS_P1;SDS_P2;PMS_P1;PMS_P2;Temp;Humidity;BMP_temperature;BMP_pressure;BME280_temperature;BME280_humidity;BME280_pressure;Samples;Min_cycle;Max_cycle;Signal;HPM_P1;HPM_P2
2022/04/10 00:00:43;;;;;;;;;;;;;;;;;;2140850;27;19966;-47
2022/04/10 00:01:44;;;;;;;;;;;;;;;;;;2140746;27;19971;-47
2022/04/10 00:02:45;;;;;;;;;;;;;;;;;;2140977;27;19922;-47
2022/04/10 00:03:46;;;;;;;;;;;;;;;;;;2140922;27;19923;-48
2022/04/10 00:04:47;;;;;;;;;;;;;;;;;;2140862;27;19926;-48
2022/04/10 00:05:48;;;;;;;;;;;;;;;;;;2140785;27;20036;-48
2022/04/10 00:06:49;;;;;;;;;;;;;;;;;;2140890;27;19923;-44
2022/04/10 00:07:50;;;;;;;;;;;;;;;;;;2141223;27;19923;-43
2022/04/10 00:08:51;;;;;;;;;;;;;;;;;;2140690;27;19930;-43
2022/04/10 00:09:52;;;;;;;;;;;;;;;;;;2140839;27;19929;-43
2022/04/10 00:10:52;;;;;;;;;;;;;;;;;;2140720;27;20382;-43
2022/04/10 00:11:54;;;;;;;;;;;;;;;;;;2140708;27;20392;-43
2022/04/10 00:12:55;;;;;;;;;;;;;;;;;;2140807;27;19923;-43
2022/04/10 00:13:56;;;;;;;;;;;;;;;;;;2140526;27;19922;-43
2022/04/10 00:14:57;;;;;;;;;;;;;;;;;;2132041;27;19927;-43
2022/04/10 00:15:58;;;;;;;;;;;;;;;;;;2132452;27;19923;-48
2022/04/10 00:16:59;;;;;;;;;;;;;;;;;;2132162;27;19989;-49
2022/04/10 00:18:00;;;;;;;;;;;;;;;;;;2132217;27;19923;-49
2022/04/10 00:19:04;;;;;;;;;;;;;;;;;;2132191;27;19930;-49
2022/04/10 00:20:05;;;;;;;;;;;;;;;;;;2132058;27;19923;-49
2022/04/10 00:21:07;;;;;;;;;;;;;;;;;;2132099;27;19923;-50
2022/04/10 00:22:08;;;;;;;;;;;;;;;;;;2136016;27;20436;-51
2022/04/10 00:23:09;;;;;;;;;;;;;;;;;;2140687;27;19929;-50
2022/04/10 00:24:11;;;;;;;;;;;;;;;;;;2140753;27;20398;-50
2022/04/10 00:25:11;;;;;;;;;;;;;;;;;;2140598;27;19936;-54
2022/04/10 00:26:14;;;;;;;;;;;;;;;;;;2140209;27;19936;-44
2022/04/10 00:27:15;;;;;;;;;;;;;;;;;;2140941;27;19975;-44
2022/04/10 00:28:16;;;;;;;;;;;;;;;;;;2141080;27;19967;-54
2022/04/10 00:29:17;;;;;;;;;;;;;;;;;;2140543;27;20356;-49
2022/04/10 00:30:18;;;;;;;;;;;;;;;;;;2139891;27;20425;-55
2022/04/10 00:31:19;;;;;;;;;;;;;;;;;;2140540;27;19927;-49
2022/04/10 00:32:20;;;;;;;;;;;;;;;;;;2140684;27;19969;-51
2022/04/10 00:33:22;;;;;;;;;;;;;;;;;;2140723;27;19945;-44
2022/04/10 00:34:22;;;;;;;;;;;;;;;;;;2141545;27;19927;-52
2022/04/10 00:35:24;;;;;;;;;;;;;;;;;;2140681;27;19926;-50
2022/04/10 00:36:25;;;;;;;;;;;;;;;;;;2140510;27;20017;-48
2022/04/10 00:37:27;;;;;;;;;;;;;;;;;;2140321;27;20026;-49
2022/04/10 00:38:28;;;;;;;;;;;;;;;;;;2140756;27;19923;-49
2022/04/10 00:39:29;;;;;;;;;;;;;;;;;;2140669;27;19926;-50
2022/04/10 00:40:31;;;;;;;;;;;;;;;;;;2140659;27;19923;-49
2022/04/10 00:41:31;;;;;;;;;;;;;;;;;;2140474;27;19951;-54
2022/04/10 00:42:32;;;;;;;;;;;;;;;;;;2140796;27;19982;-47
2022/04/10 00:43:34;;;;;;;;;;;;;;;;;;2140791;27;19975;-46
2022/04/10 00:44:35;;;;;;;;;;;;;;;;;;2140610;27;19923;-46
2022/04/10 00:45:36;;;;;;;;;;;;;;;;;;2140427;27;19923;-46
2022/04/10 00:46:37;;;;;;;;;;;;;;;;;;2140528;27;19923;-46
2022/04/10 00:47:38;;;;;;;;;;;;;;;;;;2140646;27;20010;-47
2022/04/10 00:48:39;;;;;;;;;;;;;;;;;;2140533;27;20333;-48
2022/04/10 00:49:40;;;;;;;;;;;;;;;;;;2140439;27;19923;-46
2022/04/10 00:51:40;;;;;;;;;;;;;;;;;;2140730;27;20348;-46
2022/04/10 00:52:02;;;;;;;;;;;;;;;;;;2140485;27;19954;-46
2022/04/10 00:53:03;;;;;;;;;;;;;;;;;;2140626;27;19923;-46
2022/04/10 00:54:03;;;;;;;;;;;;;;;;;;2140449;27;19970;-45
2022/04/10 00:55:05;;;;;;;;;;;;;;;;;;2140550;27;19922;-46
2022/04/10 00:56:05;;;;;;;;;;;;;;;;;;2140853;27;20291;-45
2022/04/10 00:57:06;;;;;;;;;;;;;;;;;;2140488;27;19927;-45
2022/04/10 00:58:07;;;;;;;;;;;;;;;;;;2140667;27;19923;-45
2022/04/10 00:59:08;;;;;;;;;;;;;;;;;;2140478;27;19923;-46
2022/04/10 01:00:09;;;;;;;;;;;;;;;;;;2140414;27;19923;-46
2022/04/10 01:01:10;;;;;;;;;;;;;;;;;;2140411;27;19972;-45
2022/04/10 01:02:12;;;;;;;;;;;;;;;;;;2140486;27;19923;-45
2022/04/10 01:03:13;;;;;;;;;;;;;;;;;;2140396;27;20399;-46
2022/04/10 01:04:14;;;;;;;;;;;;;;;;;;2140603;27;19929;-44
2022/04/10 01:05:15;;;;;;;;;;;;;;;;;;2140379;27;20342;-44
2022/04/10 01:06:16;;;;;;;;;;;;;;;;;;2140182;27;20554;-45
2022/04/10 01:07:17;;;;;;;;;;;;;;;;;;2140537;27;19937;-45
2022/04/10 01:08:18;;;;;;;;;;;;;;;;;;2140415;27;19926;-45
2022/04/10 01:09:20;;;;;;;;;;;;;;;;;;2140424;27;19927;-45
2022/04/10 01:10:21;;;;;;;;;;;;;;;;;;2140545;27;19923;-45
2022/04/10 01:11:22;;;;;;;;;;;;;;;;;;2140250;27;19922;-46
2022/04/10 01:12:23;;;;;;;;;;;;;;;;;;2140467;27;19922;-45
2022/04/10 01:13:24;;;;;;;;;;;;;;;;;;2140780;27;19923;-50
2022/04/10 01:14:25;;;;;;;;;;;;;;;;;;2135753;27;19976;-50
2022/04/10 01:15:26;;;;;;;;;;;;;;;;;;2131952;27;19930;-52
2022/04/10 01:16:27;;;;;;;;;;;;;;;;;;2131615;27;20393;-51
2022/04/10 01:17:28;;;;;;;;;;;;;;;;;;2131984;27;19930;-53
2022/04/10 01:18:29;;;;;;;;;;;;;;;;;;2131837;27;19923;-49
2022/04/10 01:19:30;;;;;;;;;;;;;;;;;;2131779;27;20268;-49
2022/04/10 01:20:31;;;;;;;;;;;;;;;;;;2131807;27;19929;-50
2022/04/10 01:21:32;;;;;;;;;;;;;;;;;;2131595;27;19930;-49
2022/04/10 01:22:33;;;;;;;;;;;;;;;;;;2131809;27;19923;-52
2022/04/10 01:23:34;;;;;;;;;;;;;;;;;;2131962;27;20198;-49
2022/04/10 01:24:35;;;;;;;;;;;;;;;;;;2132066;27;20280;-49
2022/04/10 01:25:36;;;;;;;;;;;;;;;;;;2131548;27;19923;-51
2022/04/10 01:26:37;;;;;;;;;;;;;;;;;;2131720;27;19923;-49
2022/04/10 01:27:38;;;;;;;;;;;;;;;;;;2131678;27;19929;-49
2022/04/10 01:28:39;;;;;;;;;;;;;;;;;;2131762;27;19927;-50
2022/04/10 01:29:40;;;;;;;;;;;;;;;;;;2132067;27;20268;-49
2022/04/10 01:30:43;;;;;;;;;;;;;;;;;;2131678;27;19923;-50
2022/04/10 01:31:44;;;;;;;;;;;;;;;;;;2131511;27;19927;-49
2022/04/10 01:32:45;;;;;;;;;;;;;;;;;;2131765;27;19923;-49
2022/04/10 01:33:46;;;;;;;;;;;;;;;;;;2139548;27;19945;-49
2022/04/10 01:34:47;;;;;;;;;;;;;;;;;;2140372;27;20298;-49
2022/04/10 01:35:48;;;;;;;;;;;;;;;;;;2140339;27;19975;-50
2022/04/10 01:36:49;;;;;;;;;;;;;;;;;;2140100;27;20547;-51
2022/04/10 01:37:50;;;;;;;;;;;;;;;;;;2140296;27;20252;-51
2022/04/10 01:38:51;;;;;;;;;;;;;;;;;;2140086;27;19922;-53
2022/04/10 01:39:52;;;;;;;;;;;;;;;;;;2139711;27;19923;-50
2022/04/10 01:40:53;;;;;;;;;;;;;;;;;;2140170;27;19923;-51
2022/04/10 01:41:54;;;;;;;;;;;;;;;;;;2140130;27;19951;-49
2022/04/10 01:42:55;;;;;;;;;;;;;;;;;;2140138;27;20359;-52
2022/04/10 01:43:56;;;;;;;;;;;;;;;;;;2139854;27;19923;-50
2022/04/10 01:44:58;;;;;;;;;;;;;;;;;;2140272;27;19927;-50
2022/04/10 01:45:59;;;;;;;;;;;;;;;;;;2139980;27;19929;-50
2022/04/10 01:47:00;;;;;;;;;;;;;;;;;;2140088;27;20351;-52
2022/04/10 01:48:01;;;;;;;;;;;;;;;;;;2140332;27;19923;-51
2022/04/10 01:49:02;;;;;;;;;;;;;;;;;;2140084;27;19923;-52
2022/04/10 01:50:03;;;;;;;;;;;;;;;;;;2140169;27;19948;-49
2022/04/10 01:51:04;;;;;;;;;;;;;;;;;;2140306;27;19987;-49
2022/04/10 01:52:05;;;;;;;;;;;;;;;;;;2140276;27;19922;-49
2022/04/10 01:53:06;;;;;;;;;;;;;;;;;;2140200;27;20337;-49
2022/04/10 01:54:07;;;;;;;;;;;;;;;;;;2140298;27;19964;-44
2022/04/10 01:55:08;;;;;;;;;;;;;;;;;;2140322;27;20313;-45
2022/04/10 01:56:09;;;;;;;;;;;;;;;;;;2140165;27;20386;-45
2022/04/10 01:57:10;;;;;;;;;;;;;;;;;;2140057;27;19930;-45
2022/04/10 01:58:11;;;;;;;;;;;;;;;;;;2139894;27;19922;-50
2022/04/10 01:59:12;;;;;;;;;;;;;;;;;;2140044;27;19948;-52
2022/04/10 02:00:13;;;;;;;;;;;;;;;;;;2140290;27;19930;-50
2022/04/10 02:01:14;;;;;;;;;;;;;;;;;;2140031;27;20442;-50
2022/04/10 02:02:15;;;;;;;;;;;;;;;;;;2140063;27;20291;-49
2022/04/10 02:03:16;;;;;;;;;;;;;;;;;;2140168;27;19992;-51
2022/04/10 02:04:18;;;;;;;;;;;;;;;;;;2140134;27;19927;-50
2022/04/10 02:05:19;;;;;;;;;;;;;;;;;;2140018;27;19927;-49
2022/04/10 02:06:20;;;;;;;;;;;;;;;;;;2140066;27;19930;-50
2022/04/10 02:07:21;;;;;;;;;;;;;;;;;;2140033;27;19923;-49
2022/04/10 02:08:22;;;;;;;;;;;;;;;;;;2140050;27;20289;-49
2022/04/10 02:09:23;;;;;;;;;;;;;;;;;;2140422;27;19936;-45
2022/04/10 02:10:24;;;;;;;;;;;;;;;;;;2140004;27;19927;-45
2022/04/10 02:11:25;;;;;;;;;;;;;;;;;;2140033;27;20371;-44
2022/04/10 02:12:26;;;;;;;;;;;;;;;;;;2140068;27;19923;-44
2022/04/10 02:13:27;;;;;;;;;;;;;;;;;;2140093;27;19979;-45
2022/04/10 02:14:28;;;;;;;;;;;;;;;;;;2135143;27;19977;-45
2022/04/10 02:15:29;;;;;;;;;;;;;;;;;;2131619;27;19923;-51
2022/04/10 02:16:30;;;;;;;;;;;;;;;;;;2131327;27;19934;-50
2022/04/10 02:17:31;;;;;;;;;;;;;;;;;;2131351;27;20252;-51
2022/04/10 02:18:31;;;;;;;;;;;;;;;;;;2131359;27;20421;-51
2022/04/10 02:19:33;;;;;;;;;;;;;;;;;;2131278;27;19999;-49
2022/04/10 02:20:33;;;;;;;;;;;;;;;;;;2131516;27;19926;-49
2022/04/10 02:21:35;;;;;;;;;;;;;;;;;;2133871;27;19939;-53
2022/04/10 02:22:36;;;;;;;;;;;;;;;;;;2140278;27;19926;-44
2022/04/10 02:23:37;;;;;;;;;;;;;;;;;;2140013;27;20401;-45
2022/04/10 02:24:38;;;;;;;;;;;;;;;;;;2140129;27;19937;-45
2022/04/10 02:25:39;;;;;;;;;;;;;;;;;;2139933;27;19936;-45
2022/04/10 02:26:40;;;;;;;;;;;;;;;;;;2139996;27;19923;-45
2022/04/10 02:27:41;;;;;;;;;;;;;;;;;;2139963;27;19929;-45
2022/04/10 02:28:42;;;;;;;;;;;;;;;;;;2139860;27;20376;-44
2022/04/10 02:29:43;;;;;;;;;;;;;;;;;;2139726;27;20267;-45
2022/04/10 02:30:44;;;;;;;;;;;;;;;;;;2139963;27;19923;-45
2022/04/10 02:31:45;;;;;;;;;;;;;;;;;;2140162;27;19930;-44
2022/04/10 02:32:46;;;;;;;;;;;;;;;;;;2139963;27;19923;-44
2022/04/10 02:33:47;;;;;;;;;;;;;;;;;;2140099;27;19927;-44
2022/04/10 02:34:48;;;;;;;;;;;;;;;;;;2139857;27;19938;-45
2022/04/10 02:35:49;;;;;;;;;;;;;;;;;;2140070;27;20368;-44
2022/04/10 02:36:50;;;;;;;;;;;;;;;;;;2139901;27;19933;-45
2022/04/10 02:37:51;;;;;;;;;;;;;;;;;;2139755;27;19931;-46
2022/04/10 02:38:52;;;;;;;;;;;;;;;;;;2140258;27;19922;-50
2022/04/10 02:39:55;;;;;;;;;;;;;;;;;;2139880;27;19923;-50
2022/04/10 02:40:56;;;;;;;;;;;;;;;;;;2139990;27;20291;-49
2022/04/10 02:41:58;;;;;;;;;;;;;;;;;;2139760;27;19927;-49
2022/04/10 02:42:58;;;;;;;;;;;;;;;;;;2140038;27;19930;-50
2022/04/10 02:44:00;;;;;;;;;;;;;;;;;;2140048;27;19923;-50
2022/04/10 02:45:00;;;;;;;;;;;;;;;;;;2139860;27;19930;-52
2022/04/10 02:46:02;;;;;;;;;;;;;;;;;;2139865;27;19929;-51
2022/04/10 02:47:02;;;;;;;;;;;;;;;;;;2139561;27;19934;-50
2022/04/10 02:48:03;;;;;;;;;;;;;;;;;;2140004;27;19949;-50
2022/04/10 02:49:04;;;;;;;;;;;;;;;;;;2139855;27;20269;-49
2022/04/10 02:50:05;;;;;;;;;;;;;;;;;;2139676;27;19936;-50
2022/04/10 02:51:06;;;;;;;;;;;;;;;;;;2139778;27;19930;-50
2022/04/10 02:52:07;;;;;;;;;;;;;;;;;;2140011;27;20386;-50
2022/04/10 02:53:08;;;;;;;;;;;;;;;;;;2139817;27;20188;-50
2022/04/10 02:54:09;;;;;;;;;;;;;;;;;;2139854;27;19927;-49
2022/04/10 02:55:10;;;;;;;;;;;;;;;;;;2139776;27;19923;-49
2022/04/10 02:56:11;;;;;;;;;;;;;;;;;;2140062;27;19923;-49
2022/04/10 02:57:12;;;;;;;;;;;;;;;;;;2141286;27;19923;-50
2022/04/10 02:58:13;;;;;;;;;;;;;;;;;;2141351;27;19929;-52
2022/04/10 02:59:14;;;;;;;;;;;;;;;;;;2141157;27;20372;-49
2022/04/10 03:00:15;;;;;;;;;;;;;;;;;;2141401;27;19948;-49
2022/04/10 03:01:16;;;;;;;;;;;;;;;;;;2140959;27;19923;-44
2022/04/10 03:02:17;;;;;;;;;;;;;;;;;;2141416;27;20139;-44
2022/04/10 03:03:18;;;;;;;;;;;;;;;;;;2141242;27;20371;-44
2022/04/10 03:04:19;;;;;;;;;;;;;;;;;;2141279;27;19944;-44
2022/04/10 03:05:19;;;;;;;;;;;;;;;;;;2141356;27;19929;-44
2022/04/10 03:06:20;;;;;;;;;;;;;;;;;;2141107;27;20006;-44
2022/04/10 03:07:21;;;;;;;;;;;;;;;;;;2141191;27;19929;-44
2022/04/10 03:08:22;;;;;;;;;;;;;;;;;;2141340;27;19927;-48
2022/04/10 03:09:23;;;;;;;;;;;;;;;;;;2141364;27;19927;-51
2022/04/10 03:10:24;;;;;;;;;;;;;;;;;;2141418;27;19938;-49
2022/04/10 03:11:25;;;;;;;;;;;;;;;;;;2141023;27;19961;-49
2022/04/10 03:12:26;;;;;;;;;;;;;;;;;;2141183;27;20317;-49
2022/04/10 03:13:27;;;;;;;;;;;;;;;;;;2141133;27;19926;-49
2022/04/10 03:14:28;;;;;;;;;;;;;;;;;;2136188;27;19923;-50
2022/04/10 03:15:29;;;;;;;;;;;;;;;;;;2132377;27;19923;-50
2022/04/10 03:16:30;;;;;;;;;;;;;;;;;;2132424;27;20164;-48
2022/04/10 03:17:31;;;;;;;;;;;;;;;;;;2132160;27;19967;-49
2022/04/10 03:18:32;;;;;;;;;;;;;;;;;;2140869;27;19922;-49
2022/04/10 03:19:32;;;;;;;;;;;;;;;;;;2141422;27;19944;-44
2022/04/10 03:20:34;;;;;;;;;;;;;;;;;;2141034;27;19923;-44
2022/04/10 03:21:34;;;;;;;;;;;;;;;;;;2141298;27;20131;-44
2022/04/10 03:22:36;;;;;;;;;;;;;;;;;;2141037;27;20298;-44
2022/04/10 03:23:36;;;;;;;;;;;;;;;;;;2140337;27;20371;-44
2022/04/10 03:24:37;;;;;;;;;;;;;;;;;;2141368;27;20008;-52
2022/04/10 03:25:38;;;;;;;;;;;;;;;;;;2138718;27;19937;-50
2022/04/10 03:26:39;;;;;;;;;;;;;;;;;;2132716;27;19923;-50
2022/04/10 03:27:40;;;;;;;;;;;;;;;;;;2132663;27;19923;-49
2022/04/10 03:28:41;;;;;;;;;;;;;;;;;;2132738;27;19930;-44
2022/04/10 03:29:42;;;;;;;;;;;;;;;;;;2132573;27;19941;-44
2022/04/10 03:30:44;;;;;;;;;;;;;;;;;;2132423;27;19923;-44
2022/04/10 03:31:46;;;;;;;;;;;;;;;;;;2132486;27;19930;-44
2022/04/10 03:32:47;;;;;;;;;;;;;;;;;;2132629;27;19923;-48
2022/04/10 03:33:48;;;;;;;;;;;;;;;;;;2132353;27;19949;-50
2022/04/10 03:34:49;;;;;;;;;;;;;;;;;;2132404;27;19923;-50
2022/04/10 03:35:50;;;;;;;;;;;;;;;;;;2132391;27;20375;-50
2022/04/10 03:36:51;;;;;;;;;;;;;;;;;;2132620;27;19923;-44
2022/04/10 03:37:52;;;;;;;;;;;;;;;;;;2132530;27;20380;-43
2022/04/10 03:38:53;;;;;;;;;;;;;;;;;;2132334;27;20078;-44
2022/04/10 03:39:54;;;;;;;;;;;;;;;;;;2132422;27;20399;-44
2022/04/10 03:40:55;;;;;;;;;;;;;;;;;;2132695;27;19923;-44
2022/04/10 03:41:56;;;;;;;;;;;;;;;;;;2132202;27;20393;-45
2022/04/10 03:42:57;;;;;;;;;;;;;;;;;;2132322;27;19927;-44
2022/04/10 03:43:58;;;;;;;;;;;;;;;;;;2132426;27;19923;-44
2022/04/10 03:44:59;;;;;;;;;;;;;;;;;;2132676;27;19930;-44
2022/04/10 03:46:00;;;;;;;;;;;;;;;;;;2132794;27;19943;-44
2022/04/10 03:47:01;;;;;;;;;;;;;;;;;;2132258;27;19930;-44
2022/04/10 03:48:02;;;;;;;;;;;;;;;;;;2132623;27;19931;-53
2022/04/10 03:49:03;;;;;;;;;;;;;;;;;;2132365;27;19923;-49
2022/04/10 03:50:04;;;;;;;;;;;;;;;;;;2132383;27;20321;-53
2022/04/10 03:51:05;;;;;;;;;;;;;;;;;;2132351;27;19931;-50
2022/04/10 03:52:06;;;;;;;;;;;;;;;;;;2132359;27;20110;-49
2022/04/10 03:53:07;;;;;;;;;;;;;;;;;;2132295;27;19931;-49
2022/04/10 03:54:08;;;;;;;;;;;;;;;;;;2132391;27;19923;-44
2022/04/10 03:55:09;;;;;;;;;;;;;;;;;;2132273;27;19971;-44
2022/04/10 03:56:10;;;;;;;;;;;;;;;;;;2132386;27;19927;-43
2022/04/10 03:57:11;;;;;;;;;;;;;;;;;;2132620;27;20313;-44
2022/04/10 03:58:12;;;;;;;;;;;;;;;;;;2132224;27;19930;-43
2022/04/10 03:59:13;;;;;;;;;;;;;;;;;;2132385;27;19929;-44
2022/04/10 04:00:14;;;;;;;;;;;;;;;;;;2132816;27;19923;-49
2022/04/10 04:01:15;;;;;;;;;;;;;;;;;;2132237;27;19945;-50
2022/04/10 04:02:16;;;;;;;;;;;;;;;;;;2132155;27;19922;-48
2022/04/10 04:03:17;;;;;;;;;;;;;;;;;;2132370;27;19927;-49
2022/04/10 04:04:18;;;;;;;;;;;;;;;;;;2132228;27;19927;-50
2022/04/10 04:05:19;;;;;;;;;;;;;;;;;;2132394;27;19927;-49
2022/04/10 04:06:20;;;;;;;;;;;;;;;;;;2132127;27;19930;-49
2022/04/10 04:07:21;;;;;;;;;;;;;;;;;;2131676;27;20432;-51
2022/04/10 04:08:22;;;;;;;;;;;;;;;;;;2132302;27;19923;-50
2022/04/10 04:09:23;;;;;;;;;;;;;;;;;;2132259;27;20360;-50
2022/04/10 04:10:24;;;;;;;;;;;;;;;;;;2136897;27;20405;-49
2022/04/10 04:11:25;;;;;;;;;;;;;;;;;;2140967;27;20359;-43
2022/04/10 04:12:26;;;;;;;;;;;;;;;;;;2140852;27;19923;-44
2022/04/10 04:13:27;;;;;;;;;;;;;;;;;;2140790;27;19923;-43
2022/04/10 04:14:28;;;;;;;;;;;;;;;;;;2140562;27;20307;-44
2022/04/10 04:15:29;;;;;;;;;;;;;;;;;;2140667;27;19958;-44
2022/04/10 04:16:30;;;;;;;;;;;;;;;;;;2140672;27;19926;-43
2022/04/10 04:17:31;;;;;;;;;;;;;;;;;;2140693;27;20358;-43
2022/04/10 04:18:32;;;;;;;;;;;;;;;;;;2140660;27;19923;-43
2022/04/10 04:19:33;;;;;;;;;;;;;;;;;;2140751;27;19922;-43
2022/04/10 04:20:34;;;;;;;;;;;;;;;;;;2140685;27;19922;-43
2022/04/10 04:21:34;;;;;;;;;;;;;;;;;;2140509;27;19923;-43
2022/04/10 04:22:35;;;;;;;;;;;;;;;;;;2140904;27;19923;-44
2022/04/10 04:23:36;;;;;;;;;;;;;;;;;;2140729;27;19973;-44
2022/04/10 04:24:37;;;;;;;;;;;;;;;;;;2140661;27;19930;-43
2022/04/10 04:25:38;;;;;;;;;;;;;;;;;;2140704;27;19930;-44
2022/04/10 04:26:39;;;;;;;;;;;;;;;;;;2140589;27;20295;-43
2022/04/10 04:27:40;;;;;;;;;;;;;;;;;;2140613;27;19922;-44
2022/04/10 04:28:41;;;;;;;;;;;;;;;;;;2140791;27;20371;-44
2022/04/10 04:29:42;;;;;;;;;;;;;;;;;;2140171;27;19922;-43
2022/04/10 04:30:43;;;;;;;;;;;;;;;;;;2140862;27;19923;-43
2022/04/10 04:31:44;;;;;;;;;;;;;;;;;;2140685;27;19923;-43
2022/04/10 04:32:45;;;;;;;;;;;;;;;;;;2140806;27;19975;-43
2022/04/10 04:33:46;;;;;;;;;;;;;;;;;;2140766;27;19927;-43
2022/04/10 04:34:47;;;;;;;;;;;;;;;;;;2141043;27;20304;-43
2022/04/10 04:35:48;;;;;;;;;;;;;;;;;;2140967;27;19975;-43
2022/04/10 04:36:49;;;;;;;;;;;;;;;;;;2140511;27;19967;-44
2022/04/10 04:37:50;;;;;;;;;;;;;;;;;;2140937;27;19922;-49
2022/04/10 04:38:52;;;;;;;;;;;;;;;;;;2140734;27;20225;-43
2022/04/10 04:39:53;;;;;;;;;;;;;;;;;;2140654;27;19923;-43
2022/04/10 04:40:54;;;;;;;;;;;;;;;;;;2140809;27;20257;-43
2022/04/10 04:41:55;;;;;;;;;;;;;;;;;;2140713;27;19923;-51
2022/04/10 04:42:56;;;;;;;;;;;;;;;;;;2140827;27;19923;-49
2022/04/10 04:43:57;;;;;;;;;;;;;;;;;;2140529;27;20443;-49
2022/04/10 04:44:58;;;;;;;;;;;;;;;;;;2140690;27;20009;-49
2022/04/10 04:45:59;;;;;;;;;;;;;;;;;;2140385;27;19930;-51
2022/04/10 04:47:00;;;;;;;;;;;;;;;;;;2140495;27;20377;-50
2022/04/10 04:48:01;;;;;;;;;;;;;;;;;;2140552;27;19973;-49
2022/04/10 04:49:02;;;;;;;;;;;;;;;;;;2140771;27;19923;-50
2022/04/10 04:50:03;;;;;;;;;;;;;;;;;;2140567;27;19923;-50
2022/04/10 04:51:04;;;;;;;;;;;;;;;;;;2141031;27;19922;-44
2022/04/10 04:52:05;;;;;;;;;;;;;;;;;;2140310;27;19981;-43
2022/04/10 04:53:06;;;;;;;;;;;;;;;;;;2141184;27;19923;-44
2022/04/10 04:54:08;;;;;;;;;;;;;;;;;;2140598;27;19923;-43
2022/04/10 04:55:09;;;;;;;;;;;;;;;;;;2140711;27;19930;-49
2022/04/10 04:56:10;;;;;;;;;;;;;;;;;;2140365;27;19930;-49
2022/04/10 04:57:11;;;;;;;;;;;;;;;;;;2140485;27;19968;-49
2022/04/10 04:58:12;;;;;;;;;;;;;;;;;;2140655;27;20324;-44
2022/04/10 04:59:14;;;;;;;;;;;;;;;;;;2140798;27;20029;-43
2022/04/10 05:00:15;;;;;;;;;;;;;;;;;;2140649;27;19922;-43
2022/04/10 05:01:16;;;;;;;;;;;;;;;;;;2140255;27;19922;-50
2022/04/10 05:02:17;;;;;;;;;;;;;;;;;;2140599;27;19936;-50
2022/04/10 05:03:18;;;;;;;;;;;;;;;;;;2140406;27;20386;-50
2022/04/10 05:04:20;;;;;;;;;;;;;;;;;;2140386;27;19934;-53
2022/04/10 05:05:21;;;;;;;;;;;;;;;;;;2140525;27;19923;-49
2022/04/10 05:06:22;;;;;;;;;;;;;;;;;;2140414;27;19923;-49
2022/04/10 05:07:23;;;;;;;;;;;;;;;;;;2140645;27;19991;-49
2022/04/10 05:08:24;;;;;;;;;;;;;;;;;;2140631;27;19930;-43
2022/04/10 05:09:25;;;;;;;;;;;;;;;;;;2140382;27;19946;-45
2022/04/10 05:10:26;;;;;;;;;;;;;;;;;;2140378;27;19937;-43
2022/04/10 05:11:27;;;;;;;;;;;;;;;;;;2140332;27;19931;-43
2022/04/10 05:12:32;;;;;;;;;;;;;;;;;;2140404;27;19922;-43
2022/04/10 05:13:33;;;;;;;;;;;;;;;;;;2140566;27;20115;-44
2022/04/10 05:14:34;;;;;;;;;;;;;;;;;;2134822;27;19991;-44
2022/04/10 05:15:35;;;;;;;;;;;;;;;;;;2131797;27;19923;-43
2022/04/10 05:16:36;;;;;;;;;;;;;;;;;;2131573;27;20411;-44
2022/04/10 05:17:37;;;;;;;;;;;;;;;;;;2131764;27;20013;-44
2022/04/10 05:18:38;;;;;;;;;;;;;;;;;;2132074;27;19927;-43
2022/04/10 05:19:39;;;;;;;;;;;;;;;;;;2131180;27;19923;-43
2022/04/10 05:20:40;;;;;;;;;;;;;;;;;;2131715;27;19929;-43
2022/04/10 05:21:40;;;;;;;;;;;;;;;;;;2131825;27;19923;-49
2022/04/10 05:22:42;;;;;;;;;;;;;;;;;;2132040;27;19923;-48
2022/04/10 05:23:42;;;;;;;;;;;;;;;;;;2131732;27;19961;-49
2022/04/10 05:24:43;;;;;;;;;;;;;;;;;;2131766;27;20308;-49
2022/04/10 05:25:44;;;;;;;;;;;;;;;;;;2131698;27;19927;-50
2022/04/10 05:26:46;;;;;;;;;;;;;;;;;;2131684;27;20382;-44
2022/04/10 05:27:46;;;;;;;;;;;;;;;;;;2131672;27;19923;-43
2022/04/10 05:28:47;;;;;;;;;;;;;;;;;;2131958;27;19923;-44
2022/04/10 05:29:49;;;;;;;;;;;;;;;;;;2132119;27;19930;-50
2022/04/10 05:30:50;;;;;;;;;;;;;;;;;;2131560;27;19923;-52
2022/04/10 05:31:51;;;;;;;;;;;;;;;;;;2131578;27;20295;-50
2022/04/10 05:32:52;;;;;;;;;;;;;;;;;;2134119;27;20102;-49
2022/04/10 05:33:53;;;;;;;;;;;;;;;;;;2140476;27;19946;-44
2022/04/10 05:34:54;;;;;;;;;;;;;;;;;;2140686;27;19923;-48
2022/04/10 05:35:55;;;;;;;;;;;;;;;;;;2140511;27;19930;-44
2022/04/10 05:36:56;;;;;;;;;;;;;;;;;;2140327;27;19923;-44
2022/04/10 05:37:57;;;;;;;;;;;;;;;;;;2140528;27;20512;-43
2022/04/10 05:38:58;;;;;;;;;;;;;;;;;;2140248;27;19926;-43
2022/04/10 05:39:59;;;;;;;;;;;;;;;;;;2140227;27;19923;-44
2022/04/10 05:41:00;;;;;;;;;;;;;;;;;;2140164;27;19922;-44
2022/04/10 05:42:01;;;;;;;;;;;;;;;;;;2140100;27;20367;-44
2022/04/10 05:43:02;;;;;;;;;;;;;;;;;;2140332;27;19923;-44
2022/04/10 05:44:03;;;;;;;;;;;;;;;;;;2140152;27;19930;-44
2022/04/10 05:45:04;;;;;;;;;;;;;;;;;;2140316;27;19954;-43
2022/04/10 05:46:05;;;;;;;;;;;;;;;;;;2140221;27;19922;-43
2022/04/10 05:47:06;;;;;;;;;;;;;;;;;;2140191;27;19974;-44
2022/04/10 05:48:06;;;;;;;;;;;;;;;;;;2140258;27;20325;-44
2022/04/10 05:49:08;;;;;;;;;;;;;;;;;;2140315;27;19927;-44
2022/04/10 05:50:10;;;;;;;;;;;;;;;;;;2140414;27;19923;-43
2022/04/10 05:51:11;;;;;;;;;;;;;;;;;;2140013;27;19929;-44
2022/04/10 05:52:11;;;;;;;;;;;;;;;;;;2140166;27;20323;-44
2022/04/10 05:53:12;;;;;;;;;;;;;;;;;;2140312;27;19927;-49
2022/04/10 05:54:14;;;;;;;;;;;;;;;;;;2140916;27;19922;-44
2022/04/10 05:55:15;;;;;;;;;;;;;;;;;;2140645;27;19923;-43
2022/04/10 05:56:16;;;;;;;;;;;;;;;;;;2139954;27;19923;-44
2022/04/10 05:57:17;;;;;;;;;;;;;;;;;;2140139;27;20394;-44
2022/04/10 05:58:18;;;;;;;;;;;;;;;;;;2140089;27;20005;-43
2022/04/10 05:59:19;;;;;;;;;;;;;;;;;;2140124;27;19934;-44
2022/04/10 06:00:21;;;;;;;;;;;;;;;;;;2140389;27;20375;-50
2022/04/10 06:01:22;;;;;;;;;;;;;;;;;;2140278;27;19930;-43
2022/04/10 06:02:22;;;;;;;;;;;;;;;;;;2139981;27;19930;-44
2022/04/10 06:03:24;;;;;;;;;;;;;;;;;;2140096;27;20368;-44
2022/04/10 06:04:24;;;;;;;;;;;;;;;;;;2140069;27;20329;-44
2022/04/10 06:05:25;;;;;;;;;;;;;;;;;;2140333;27;19922;-49
2022/04/10 06:06:26;;;;;;;;;;;;;;;;;;2139908;27;20310;-49
2022/04/10 06:07:27;;;;;;;;;;;;;;;;;;2140510;27;19926;-49
2022/04/10 06:08:28;;;;;;;;;;;;;;;;;;2140085;27;19927;-49
2022/04/10 06:09:29;;;;;;;;;;;;;;;;;;2140138;27;20084;-50
2022/04/10 06:10:30;;;;;;;;;;;;;;;;;;2140219;27;19930;-50
2022/04/10 06:11:31;;;;;;;;;;;;;;;;;;2140091;27;19923;-44
2022/04/10 06:12:32;;;;;;;;;;;;;;;;;;2140178;27;19923;-45
2022/04/10 06:13:33;;;;;;;;;;;;;;;;;;2139986;27;19923;-43
2022/04/10 06:14:34;;;;;;;;;;;;;;;;;;2134870;27;20388;-44
2022/04/10 06:15:35;;;;;;;;;;;;;;;;;;2131415;27;19930;-43
2022/04/10 06:16:36;;;;;;;;;;;;;;;;;;2131299;27;20186;-43
2022/04/10 06:17:37;;;;;;;;;;;;;;;;;;2131271;27;19931;-43
2022/04/10 06:18:38;;;;;;;;;;;;;;;;;;2131392;27;19941;-44
2022/04/10 06:19:39;;;;;;;;;;;;;;;;;;2131644;27;19923;-44
2022/04/10 06:20:40;;;;;;;;;;;;;;;;;;2131313;27;20292;-43
2022/04/10 06:21:41;;;;;;;;;;;;;;;;;;2131356;27;20307;-43
2022/04/10 06:22:42;;;;;;;;;;;;;;;;;;2131796;27;19923;-49
2022/04/10 06:23:43;;;;;;;;;;;;;;;;;;2131413;27;20387;-49
2022/04/10 06:24:44;;;;;;;;;;;;;;;;;;2131330;27;19940;-50
2022/04/10 06:25:45;;;;;;;;;;;;;;;;;;2131341;27;19946;-51
2022/04/10 06:26:49;;;;;;;;;;;;;;;;;;2131127;27;19937;-48
2022/04/10 06:27:50;;;;;;;;;;;;;;;;;;2131470;27;19923;-49
2022/04/10 06:28:51;;;;;;;;;;;;;;;;;;2131429;27;19923;-52
2022/04/10 06:29:52;;;;;;;;;;;;;;;;;;2131269;27;20272;-52
2022/04/10 06:30:53;;;;;;;;;;;;;;;;;;2132983;27;19931;-49
2022/04/10 06:31:54;;;;;;;;;;;;;;;;;;2133020;27;19923;-51
2022/04/10 06:32:55;;;;;;;;;;;;;;;;;;2132881;27;20265;-49
2022/04/10 06:33:56;;;;;;;;;;;;;;;;;;2133039;27;20288;-49
2022/04/10 06:34:57;;;;;;;;;;;;;;;;;;2132929;27;19923;-48
2022/04/10 06:35:58;;;;;;;;;;;;;;;;;;2132784;27;19927;-49
2022/04/10 06:36:59;;;;;;;;;;;;;;;;;;2132847;27;20379;-51
2022/04/10 06:38:00;;;;;;;;;;;;;;;;;;2133082;27;19972;-52
2022/04/10 06:39:01;;;;;;;;;;;;;;;;;;2132787;27;19923;-50
2022/04/10 06:40:03;;;;;;;;;;;;;;;;;;2132981;27;19988;-43
2022/04/10 06:41:03;;;;;;;;;;;;;;;;;;2132922;27;19922;-43
2022/04/10 06:42:05;;;;;;;;;;;;;;;;;;2132586;27;20380;-43
2022/04/10 06:43:06;;;;;;;;;;;;;;;;;;2133327;27;19923;-50
2022/04/10 06:44:07;;;;;;;;;;;;;;;;;;2132751;27;19945;-43
2022/04/10 06:45:08;;;;;;;;;;;;;;;;;;2132851;27;19927;-49
2022/04/10 06:46:09;;;;;;;;;;;;;;;;;;2132574;27;20393;-51
2022/04/10 06:47:10;;;;;;;;;;;;;;;;;;2132958;27;19957;-43
2022/04/10 06:48:11;;;;;;;;;;;;;;;;;;2132666;27;20017;-43
2022/04/10 06:49:13;;;;;;;;;;;;;;;;;;2132716;27;19930;-44
2022/04/10 06:50:14;;;;;;;;;;;;;;;;;;2133005;27;20277;-51
2022/04/10 06:51:16;;;;;;;;;;;;;;;;;;2132693;27;19923;-44
2022/04/10 06:52:17;;;;;;;;;;;;;;;;;;2132695;27;20006;-43
2022/04/10 06:53:18;;;;;;;;;;;;;;;;;;2132820;27;20212;-43
2022/04/10 06:54:20;;;;;;;;;;;;;;;;;;2132826;27;19934;-43
2022/04/10 06:55:21;;;;;;;;;;;;;;;;;;2132732;27;19927;-43
2022/04/10 06:56:22;;;;;;;;;;;;;;;;;;2132527;27;19923;-43
2022/04/10 06:57:23;;;;;;;;;;;;;;;;;;2132655;27;19922;-43